sensor_id;sensor_type;location;lat;lon;timestamp;P1;durP1;ratioP1;P2;durP2;ratioP2
12814;SDS011;6472;52.328;13.070;2023-03-26T00:02:03;1.63;;;1.20;;
12814;SDS011;6472;52.328;13.070;2023-03-26T00:04:32;1.33;;;1.17;;
12814;SDS011;6472;52.328;13.070;2023-03-26T00:07:00;1.83;;;1.20;;
12814;SDS011;6472;52.328;13.070;2023-03-26T00:09:28;1.23;;;1.17;;
12814;SDS011;6472;52.328;13.070;2023-03-26T00:11:57;2.20;;;0.90;;
12814;SDS011;6472;52.328;13.070;2023-03-26T00:14:25;2.77;;;1.20;;
12814;SDS011;6472;52.328;13.070;2023-03-26T00:16:55;1.43;;;1.33;;
12814;SDS011;6472;52.328;13.070;2023-03-26T00:19:24;1.80;;;1.40;;
12814;SDS011;6472;52.328;13.070;2023-03-26T00:21:53;5.57;;;1.47;;
12814;SDS011;6472;52.328;13.070;2023-03-26T00:24:23;0.90;;;0.90;;
12814;SDS011;6472;52.328;13.070;2023-03-26T00:26:54;1.10;;;1.00;;
12814;SDS011;6472;52.328;13.070;2023-03-26T00:29:23;0.93;;;0.93;;
12814;SDS011;6472;52.328;13.070;2023-03-26T00:31:53;1.17;;;1.07;;
12814;SDS011;6472;52.328;13.070;2023-03-26T00:34:23;2.20;;;1.17;;
12814;SDS011;6472;52.328;13.070;2023-03-26T00:36:52;1.17;;;1.00;;
12814;SDS011;6472;52.328;13.070;2023-03-26T00:39:20;0.80;;;0.80;;
12814;SDS011;6472;52.328;13.070;2023-03-26T00:41:52;1.00;;;0.90;;
12814;SDS011;6472;52.328;13.070;2023-03-26T00:44:20;1.63;;;1.17;;
12814;SDS011;6472;52.328;13.070;2023-03-26T00:46:48;1.13;;;0.80;;
12814;SDS011;6472;52.328;13.070;2023-03-26T00:49:17;1.97;;;1.00;;
12814;SDS011;6472;52.328;13.070;2023-03-26T00:51:46;2.03;;;1.00;;
12814;SDS011;6472;52.328;13.070;2023-03-26T00:54:14;0.60;;;0.60;;
12814;SDS011;6472;52.328;13.070;2023-03-26T00:56:43;1.30;;;1.20;;
12814;SDS011;6472;52.328;13.070;2023-03-26T00:59:12;1.17;;;1.07;;
12814;SDS011;6472;52.328;13.070;2023-03-26T01:01:40;1.57;;;1.27;;
12814;SDS011;6472;52.328;13.070;2023-03-26T01:04:24;1.70;;;1.30;;
12814;SDS011;6472;52.328;13.070;2023-03-26T01:06:59;1.67;;;1.10;;
12814;SDS011;6472;52.328;13.070;2023-03-26T01:09:31;1.23;;;1.13;;
12814;SDS011;6472;52.328;13.070;2023-03-26T01:12:02;1.33;;;1.10;;
12814;SDS011;6472;52.328;13.070;2023-03-26T01:14:35;1.27;;;1.17;;
12814;SDS011;6472;52.328;13.070;2023-03-26T01:17:04;0.80;;;0.80;;
12814;SDS011;6472;52.328;13.070;2023-03-26T01:19:36;1.00;;;1.00;;
12814;SDS011;6472;52.328;13.070;2023-03-26T01:22:13;2.23;;;1.23;;
12814;SDS011;6472;52.328;13.070;2023-03-26T01:24:44;3.63;;;1.03;;
12814;SDS011;6472;52.328;13.070;2023-03-26T01:27:26;2.67;;;1.73;;
12814;SDS011;6472;52.328;13.070;2023-03-26T01:30:03;1.97;;;1.30;;
12814;SDS011;6472;52.328;13.070;2023-03-26T01:32:41;4.13;;;1.67;;
12814;SDS011;6472;52.328;13.070;2023-03-26T01:35:25;2.57;;;1.40;;
12814;SDS011;6472;52.328;13.070;2023-03-26T01:38:01;1.60;;;1.37;;
12814;SDS011;6472;52.328;13.070;2023-03-26T01:40:40;2.30;;;1.30;;
12814;SDS011;6472;52.328;13.070;2023-03-26T01:43:15;4.23;;;1.60;;
12814;SDS011;6472;52.328;13.070;2023-03-26T01:45:51;1.70;;;1.60;;
12814;SDS011;6472;52.328;13.070;2023-03-26T01:48:23;3.17;;;1.30;;
12814;SDS011;6472;52.328;13.070;2023-03-26T01:50:56;2.73;;;1.67;;
12814;SDS011;6472;52.328;13.070;2023-03-26T01:53:25;3.03;;;2.10;;
12814;SDS011;6472;52.328;13.070;2023-03-26T01:55:57;5.30;;;1.50;;
12814;SDS011;6472;52.328;13.070;2023-03-26T01:58:33;1.37;;;1.23;;
12814;SDS011;6472;52.328;13.070;2023-03-26T02:01:11;2.43;;;1.70;;
12814;SDS011;6472;52.328;13.070;2023-03-26T02:03:51;1.43;;;1.30;;
12814;SDS011;6472;52.328;13.070;2023-03-26T02:06:25;1.53;;;1.33;;
12814;SDS011;6472;52.328;13.070;2023-03-26T02:08:57;1.67;;;1.57;;
12814;SDS011;6472;52.328;13.070;2023-03-26T02:11:29;3.70;;;2.20;;
12814;SDS011;6472;52.328;13.070;2023-03-26T02:14:02;1.57;;;1.47;;
12814;SDS011;6472;52.328;13.070;2023-03-26T02:16:31;1.13;;;1.13;;
12814;SDS011;6472;52.328;13.070;2023-03-26T02:18:59;1.53;;;1.43;;
12814;SDS011;6472;52.328;13.070;2023-03-26T02:21:27;3.10;;;1.63;;
12814;SDS011;6472;52.328;13.070;2023-03-26T02:23:59;2.30;;;1.27;;
12814;SDS011;6472;52.328;13.070;2023-03-26T02:26:31;1.20;;;1.10;;
12814;SDS011;6472;52.328;13.070;2023-03-26T02:29:01;1.90;;;1.80;;
12814;SDS011;6472;52.328;13.070;2023-03-26T02:31:29;1.73;;;1.20;;
12814;SDS011;6472;52.328;13.070;2023-03-26T02:33:58;3.70;;;1.90;;
12814;SDS011;6472;52.328;13.070;2023-03-26T02:36:26;1.40;;;1.30;;
12814;SDS011;6472;52.328;13.070;2023-03-26T02:38:55;3.47;;;1.47;;
12814;SDS011;6472;52.328;13.070;2023-03-26T02:41:30;1.90;;;1.80;;
12814;SDS011;6472;52.328;13.070;2023-03-26T02:44:13;2.07;;;1.60;;
12814;SDS011;6472;52.328;13.070;2023-03-26T02:46:41;1.87;;;1.53;;
12814;SDS011;6472;52.328;13.070;2023-03-26T02:49:10;2.03;;;1.77;;
12814;SDS011;6472;52.328;13.070;2023-03-26T02:51:37;5.73;;;1.93;;
12814;SDS011;6472;52.328;13.070;2023-03-26T02:54:06;1.20;;;1.13;;
12814;SDS011;6472;52.328;13.070;2023-03-26T02:56:35;1.40;;;1.30;;
12814;SDS011;6472;52.328;13.070;2023-03-26T02:59:03;1.50;;;1.40;;
12814;SDS011;6472;52.328;13.070;2023-03-26T03:01:31;2.03;;;1.30;;
12814;SDS011;6472;52.328;13.070;2023-03-26T03:04:00;3.00;;;1.80;;
12814;SDS011;6472;52.328;13.070;2023-03-26T03:06:29;2.73;;;1.37;;
12814;SDS011;6472;52.328;13.070;2023-03-26T03:08:57;1.57;;;1.30;;
12814;SDS011;6472;52.328;13.070;2023-03-26T03:11:27;5.63;;;1.53;;
12814;SDS011;6472;52.328;13.070;2023-03-26T03:14:00;1.23;;;1.17;;
12814;SDS011;6472;52.328;13.070;2023-03-26T03:16:28;1.13;;;0.90;;
12814;SDS011;6472;52.328;13.070;2023-03-26T03:18:56;1.80;;;1.10;;
12814;SDS011;6472;52.328;13.070;2023-03-26T03:21:25;2.27;;;1.07;;
12814;SDS011;6472;52.328;13.070;2023-03-26T03:23:55;1.37;;;1.27;;
12814;SDS011;6472;52.328;13.070;2023-03-26T03:26:25;0.60;;;0.60;;
12814;SDS011;6472;52.328;13.070;2023-03-26T03:28:55;1.60;;;1.10;;
12814;SDS011;6472;52.328;13.070;2023-03-26T03:31:25;2.63;;;0.80;;
12814;SDS011;6472;52.328;13.070;2023-03-26T03:33:53;1.33;;;0.80;;
12814;SDS011;6472;52.328;13.070;2023-03-26T03:36:22;2.33;;;1.20;;
12814;SDS011;6472;52.328;13.070;2023-03-26T03:38:52;2.50;;;0.73;;
12814;SDS011;6472;52.328;13.070;2023-03-26T03:41:20;1.10;;;1.07;;
12814;SDS011;6472;52.328;13.070;2023-03-26T03:43:49;1.17;;;0.90;;
12814;SDS011;6472;52.328;13.070;2023-03-26T03:46:18;0.97;;;0.80;;
12814;SDS011;6472;52.328;13.070;2023-03-26T03:48:46;1.10;;;1.00;;
12814;SDS011;6472;52.328;13.070;2023-03-26T03:51:15;1.63;;;0.80;;
12814;SDS011;6472;52.328;13.070;2023-03-26T03:53:44;1.03;;;1.00;;
12814;SDS011;6472;52.328;13.070;2023-03-26T03:56:12;2.07;;;1.00;;
12814;SDS011;6472;52.328;13.070;2023-03-26T03:58:44;2.30;;;1.00;;
12814;SDS011;6472;52.328;13.070;2023-03-26T04:01:12;1.40;;;1.03;;
12814;SDS011;6472;52.328;13.070;2023-03-26T04:03:46;2.17;;;1.33;;
12814;SDS011;6472;52.328;13.070;2023-03-26T04:06:15;1.90;;;1.37;;
12814;SDS011;6472;52.328;13.070;2023-03-26T04:08:44;1.63;;;1.10;;
12814;SDS011;6472;52.328;13.070;2023-03-26T04:11:13;1.10;;;1.00;;
12814;SDS011;6472;52.328;13.070;2023-03-26T04:13:41;2.63;;;1.10;;
12814;SDS011;6472;52.328;13.070;2023-03-26T04:16:09;3.37;;;1.10;;
12814;SDS011;6472;52.328;13.070;2023-03-26T04:18:37;1.73;;;1.03;;
12814;SDS011;6472;52.328;13.070;2023-03-26T04:21:07;1.80;;;1.07;;
12814;SDS011;6472;52.328;13.070;2023-03-26T04:23:38;4.23;;;1.20;;
12814;SDS011;6472;52.328;13.070;2023-03-26T04:26:07;1.03;;;1.03;;
12814;SDS011;6472;52.328;13.070;2023-03-26T04:28:42;0.90;;;0.90;;
12814;SDS011;6472;52.328;13.070;2023-03-26T04:31:13;1.40;;;1.13;;
12814;SDS011;6472;52.328;13.070;2023-03-26T04:33:44;1.53;;;0.97;;
12814;SDS011;6472;52.328;13.070;2023-03-26T04:36:15;1.33;;;1.23;;
12814;SDS011;6472;52.328;13.070;2023-03-26T04:38:44;5.37;;;1.07;;
12814;SDS011;6472;52.328;13.070;2023-03-26T04:41:14;1.43;;;1.33;;
12814;SDS011;6472;52.328;13.070;2023-03-26T04:43:42;1.00;;;1.00;;
12814;SDS011;6472;52.328;13.070;2023-03-26T04:46:16;2.77;;;1.43;;
12814;SDS011;6472;52.328;13.070;2023-03-26T04:48:47;2.00;;;1.27;;
12814;SDS011;6472;52.328;13.070;2023-03-26T04:51:16;1.50;;;0.90;;
12814;SDS011;6472;52.328;13.070;2023-03-26T04:53:49;0.80;;;0.80;;
12814;SDS011;6472;52.328;13.070;2023-03-26T04:56:23;1.03;;;1.03;;
12814;SDS011;6472;52.328;13.070;2023-03-26T04:58:58;1.23;;;1.13;;
12814;SDS011;6472;52.328;13.070;2023-03-26T05:01:27;1.40;;;1.00;;
12814;SDS011;6472;52.328;13.070;2023-03-26T05:03:56;1.63;;;1.43;;
12814;SDS011;6472;52.328;13.070;2023-03-26T05:06:26;2.57;;;1.00;;
12814;SDS011;6472;52.328;13.070;2023-03-26T05:08:55;1.73;;;1.20;;
12814;SDS011;6472;52.328;13.070;2023-03-26T05:11:23;4.90;;;1.63;;
12814;SDS011;6472;52.328;13.070;2023-03-26T05:13:51;3.27;;;1.50;;
12814;SDS011;6472;52.328;13.070;2023-03-26T05:16:20;2.27;;;1.30;;
12814;SDS011;6472;52.328;13.070;2023-03-26T05:18:49;1.30;;;1.20;;
12814;SDS011;6472;52.328;13.070;2023-03-26T05:21:17;2.87;;;1.63;;
12814;SDS011;6472;52.328;13.070;2023-03-26T05:23:47;4.83;;;1.67;;
12814;SDS011;6472;52.328;13.070;2023-03-26T05:26:15;1.80;;;1.70;;
12814;SDS011;6472;52.328;13.070;2023-03-26T05:28:43;2.83;;;1.37;;
12814;SDS011;6472;52.328;13.070;2023-03-26T05:31:11;2.17;;;1.53;;
12814;SDS011;6472;52.328;13.070;2023-03-26T05:33:41;1.80;;;1.60;;
12814;SDS011;6472;52.328;13.070;2023-03-26T05:36:10;1.37;;;1.27;;
12814;SDS011;6472;52.328;13.070;2023-03-26T05:38:40;3.67;;;1.97;;
12814;SDS011;6472;52.328;13.070;2023-03-26T05:41:14;3.60;;;1.57;;
12814;SDS011;6472;52.328;13.070;2023-03-26T05:43:43;4.47;;;2.07;;
12814;SDS011;6472;52.328;13.070;2023-03-26T05:46:13;2.20;;;2.00;;
12814;SDS011;6472;52.328;13.070;2023-03-26T05:48:41;2.77;;;1.73;;
12814;SDS011;6472;52.328;13.070;2023-03-26T05:51:09;2.70;;;1.77;;
12814;SDS011;6472;52.328;13.070;2023-03-26T05:53:37;2.17;;;2.00;;
12814;SDS011;6472;52.328;13.070;2023-03-26T05:56:05;3.97;;;2.33;;
12814;SDS011;6472;52.328;13.070;2023-03-26T05:58:35;1.97;;;1.77;;
12814;SDS011;6472;52.328;13.070;2023-03-26T06:01:05;2.20;;;2.00;;
12814;SDS011;6472;52.328;13.070;2023-03-26T06:03:35;2.37;;;2.10;;
12814;SDS011;6472;52.328;13.070;2023-03-26T06:06:05;4.40;;;1.97;;
12814;SDS011;6472;52.328;13.070;2023-03-26T06:08:34;2.20;;;2.10;;
12814;SDS011;6472;52.328;13.070;2023-03-26T06:11:03;2.10;;;1.90;;
12814;SDS011;6472;52.328;13.070;2023-03-26T06:13:33;2.23;;;2.00;;
12814;SDS011;6472;52.328;13.070;2023-03-26T06:16:02;2.87;;;2.30;;
12814;SDS011;6472;52.328;13.070;2023-03-26T06:18:31;2.30;;;1.67;;
12814;SDS011;6472;52.328;13.070;2023-03-26T06:20:59;3.87;;;2.17;;
12814;SDS011;6472;52.328;13.070;2023-03-26T06:23:27;7.33;;;2.20;;
12814;SDS011;6472;52.328;13.070;2023-03-26T06:25:55;3.23;;;2.43;;
12814;SDS011;6472;52.328;13.070;2023-03-26T06:28:23;4.60;;;2.53;;
12814;SDS011;6472;52.328;13.070;2023-03-26T06:30:52;3.53;;;2.43;;
12814;SDS011;6472;52.328;13.070;2023-03-26T06:33:21;3.70;;;2.20;;
12814;SDS011;6472;52.328;13.070;2023-03-26T06:35:50;4.53;;;2.70;;
12814;SDS011;6472;52.328;13.070;2023-03-26T06:38:18;3.27;;;1.93;;
12814;SDS011;6472;52.328;13.070;2023-03-26T06:40:46;1.67;;;1.07;;
12814;SDS011;6472;52.328;13.070;2023-03-26T06:43:14;3.43;;;1.70;;
12814;SDS011;6472;52.328;13.070;2023-03-26T06:45:42;1.43;;;1.00;;
12814;SDS011;6472;52.328;13.070;2023-03-26T06:48:10;1.50;;;1.10;;
12814;SDS011;6472;52.328;13.070;2023-03-26T06:50:40;1.40;;;0.87;;
12814;SDS011;6472;52.328;13.070;2023-03-26T06:53:08;1.63;;;0.83;;
12814;SDS011;6472;52.328;13.070;2023-03-26T06:55:37;1.60;;;0.90;;
12814;SDS011;6472;52.328;13.070;2023-03-26T06:58:37;0.83;;;0.83;;
12814;SDS011;6472;52.328;13.070;2023-03-26T07:00:59;5.60;;;1.30;;
12814;SDS011;6472;52.328;13.070;2023-03-26T07:03:27;0.93;;;0.87;;
12814;SDS011;6472;52.328;13.070;2023-03-26T07:05:56;0.97;;;0.83;;
12814;SDS011;6472;52.328;13.070;2023-03-26T07:08:25;1.00;;;1.00;;
12814;SDS011;6472;52.328;13.070;2023-03-26T07:10:53;3.50;;;1.10;;
12814;SDS011;6472;52.328;13.070;2023-03-26T07:13:22;1.23;;;1.00;;
12814;SDS011;6472;52.328;13.070;2023-03-26T07:15:50;1.00;;;0.97;;
12814;SDS011;6472;52.328;13.070;2023-03-26T07:18:18;1.33;;;1.23;;
12814;SDS011;6472;52.328;13.070;2023-03-26T07:20:46;1.67;;;1.30;;
12814;SDS011;6472;52.328;13.070;2023-03-26T07:23:24;1.50;;;1.13;;
12814;SDS011;6472;52.328;13.070;2023-03-26T07:26:01;2.37;;;1.30;;
12814;SDS011;6472;52.328;13.070;2023-03-26T07:28:50;1.47;;;1.30;;
12814;SDS011;6472;52.328;13.070;2023-03-26T07:31:47;2.53;;;1.63;;
12814;SDS011;6472;52.328;13.070;2023-03-26T07:34:26;4.70;;;1.93;;
12814;SDS011;6472;52.328;13.070;2023-03-26T07:37:06;1.63;;;1.50;;
12814;SDS011;6472;52.328;13.070;2023-03-26T07:39:48;2.00;;;1.53;;
12814;SDS011;6472;52.328;13.070;2023-03-26T07:42:26;3.80;;;1.40;;
12814;SDS011;6472;52.328;13.070;2023-03-26T07:45:02;1.80;;;1.33;;
12814;SDS011;6472;52.328;13.070;2023-03-26T07:47:42;2.50;;;1.60;;
12814;SDS011;6472;52.328;13.070;2023-03-26T07:50:13;2.57;;;1.70;;
12814;SDS011;6472;52.328;13.070;2023-03-26T07:52:44;3.53;;;1.47;;
12814;SDS011;6472;52.328;13.070;2023-03-26T07:55:15;1.23;;;1.13;;
12814;SDS011;6472;52.328;13.070;2023-03-26T07:57:47;8.33;;;1.70;;
12814;SDS011;6472;52.328;13.070;2023-03-26T08:00:25;3.00;;;1.17;;
12814;SDS011;6472;52.328;13.070;2023-03-26T08:06:00;3.80;;;1.20;;
12814;SDS011;6472;52.328;13.070;2023-03-26T08:08:35;5.87;;;1.43;;
12814;SDS011;6472;52.328;13.070;2023-03-26T08:11:19;0.83;;;0.83;;
12814;SDS011;6472;52.328;13.070;2023-03-26T08:13:59;3.67;;;1.10;;
12814;SDS011;6472;52.328;13.070;2023-03-26T08:16:34;4.37;;;1.20;;
12814;SDS011;6472;52.328;13.070;2023-03-26T08:19:09;4.13;;;1.17;;
12814;SDS011;6472;52.328;13.070;2023-03-26T08:21:51;2.63;;;1.10;;
12814;SDS011;6472;52.328;13.070;2023-03-26T08:24:24;2.10;;;1.00;;
12814;SDS011;6472;52.328;13.070;2023-03-26T08:27:00;5.37;;;1.43;;
12814;SDS011;6472;52.328;13.070;2023-03-26T08:29:34;1.20;;;1.10;;
12814;SDS011;6472;52.328;13.070;2023-03-26T08:32:12;4.83;;;1.23;;
12814;SDS011;6472;52.328;13.070;2023-03-26T08:34:42;1.13;;;0.80;;
12814;SDS011;6472;52.328;13.070;2023-03-26T08:37:13;0.93;;;0.77;;
12814;SDS011;6472;52.328;13.070;2023-03-26T08:39:41;2.90;;;0.97;;
12814;SDS011;6472;52.328;13.070;2023-03-26T08:42:28;6.77;;;1.27;;
12814;SDS011;6472;52.328;13.070;2023-03-26T08:45:29;2.47;;;1.20;;
12814;SDS011;6472;52.328;13.070;2023-03-26T08:48:27;2.93;;;0.87;;
12814;SDS011;6472;52.328;13.070;2023-03-26T08:51:38;1.33;;;0.93;;
12814;SDS011;6472;52.328;13.070;2023-03-26T08:57:41;1.87;;;0.63;;
12814;SDS011;6472;52.328;13.070;2023-03-26T09:00:34;0.60;;;0.60;;
12814;SDS011;6472;52.328;13.070;2023-03-26T09:06:20;3.50;;;1.57;;
12814;SDS011;6472;52.328;13.070;2023-03-26T09:09:25;2.03;;;1.93;;
12814;SDS011;6472;52.328;13.070;2023-03-26T09:21:56;1.23;;;0.90;;
12814;SDS011;6472;52.328;13.070;2023-03-26T09:25:09;1.67;;;1.20;;
12814;SDS011;6472;52.328;13.070;2023-03-26T09:28:20;0.90;;;0.70;;
12814;SDS011;6472;52.328;13.070;2023-03-26T09:34:15;5.67;;;1.13;;
12814;SDS011;6472;52.328;13.070;2023-03-26T09:36:54;5.60;;;1.03;;
12814;SDS011;6472;52.328;13.070;2023-03-26T09:39:33;1.50;;;0.70;;
12814;SDS011;6472;52.328;13.070;2023-03-26T09:42:07;3.40;;;0.70;;
12814;SDS011;6472;52.328;13.070;2023-03-26T09:44:49;1.90;;;1.10;;
12814;SDS011;6472;52.328;13.070;2023-03-26T09:50:41;3.23;;;1.30;;
12814;SDS011;6472;52.328;13.070;2023-03-26T09:53:32;2.33;;;1.10;;
12814;SDS011;6472;52.328;13.070;2023-03-26T09:56:19;2.03;;;0.70;;
12814;SDS011;6472;52.328;13.070;2023-03-26T09:59:03;6.30;;;1.20;;
12814;SDS011;6472;52.328;13.070;2023-03-26T10:01:45;3.03;;;1.07;;
12814;SDS011;6472;52.328;13.070;2023-03-26T10:04:34;1.93;;;1.00;;
12814;SDS011;6472;52.328;13.070;2023-03-26T10:07:15;3.60;;;0.80;;
12814;SDS011;6472;52.328;13.070;2023-03-26T10:10:08;1.60;;;0.80;;
12814;SDS011;6472;52.328;13.070;2023-03-26T10:12:45;0.50;;;0.50;;
12814;SDS011;6472;52.328;13.070;2023-03-26T10:15:29;2.37;;;0.70;;
12814;SDS011;6472;52.328;13.070;2023-03-26T10:18:08;5.33;;;1.30;;
12814;SDS011;6472;52.328;13.070;2023-03-26T10:20:56;2.27;;;1.00;;
12814;SDS011;6472;52.328;13.070;2023-03-26T10:23:39;2.80;;;0.73;;
12814;SDS011;6472;52.328;13.070;2023-03-26T10:26:26;0.97;;;0.73;;
12814;SDS011;6472;52.328;13.070;2023-03-26T10:32:42;3.70;;;0.70;;
12814;SDS011;6472;52.328;13.070;2023-03-26T10:35:22;0.50;;;0.50;;
12814;SDS011;6472;52.328;13.070;2023-03-26T10:38:05;3.53;;;1.03;;
12814;SDS011;6472;52.328;13.070;2023-03-26T10:40:42;1.63;;;0.80;;
12814;SDS011;6472;52.328;13.070;2023-03-26T10:43:28;1.87;;;0.67;;
12814;SDS011;6472;52.328;13.070;2023-03-26T10:46:38;0.50;;;0.50;;
12814;SDS011;6472;52.328;13.070;2023-03-26T10:52:48;0.50;;;0.50;;
12814;SDS011;6472;52.328;13.070;2023-03-26T10:55:21;0.43;;;0.43;;
12814;SDS011;6472;52.328;13.070;2023-03-26T10:57:56;3.23;;;0.50;;
12814;SDS011;6472;52.328;13.070;2023-03-26T11:00:32;1.47;;;0.90;;
12814;SDS011;6472;52.328;13.070;2023-03-26T11:03:11;1.27;;;1.17;;
12814;SDS011;6472;52.328;13.070;2023-03-26T11:05:57;2.30;;;0.67;;
12814;SDS011;6472;52.328;13.070;2023-03-26T11:08:36;2.33;;;0.90;;
12814;SDS011;6472;52.328;13.070;2023-03-26T11:11:12;3.30;;;0.90;;
12814;SDS011;6472;52.328;13.070;2023-03-26T11:13:46;2.20;;;0.50;;
12814;SDS011;6472;52.328;13.070;2023-03-26T11:16:26;0.53;;;0.50;;
12814;SDS011;6472;52.328;13.070;2023-03-26T11:19:03;3.27;;;0.80;;
12814;SDS011;6472;52.328;13.070;2023-03-26T11:21:39;3.50;;;0.50;;
12814;SDS011;6472;52.328;13.070;2023-03-26T11:24:33;3.93;;;0.80;;
12814;SDS011;6472;52.328;13.070;2023-03-26T11:27:35;3.20;;;0.60;;
12814;SDS011;6472;52.328;13.070;2023-03-26T11:30:17;1.03;;;0.87;;
12814;SDS011;6472;52.328;13.070;2023-03-26T11:32:56;0.70;;;0.30;;
12814;SDS011;6472;52.328;13.070;2023-03-26T11:35:27;0.47;;;0.47;;
12814;SDS011;6472;52.328;13.070;2023-03-26T11:38:10;0.67;;;0.60;;
12814;SDS011;6472;52.328;13.070;2023-03-26T11:40:43;1.07;;;0.60;;
12814;SDS011;6472;52.328;13.070;2023-03-26T11:43:17;2.33;;;0.53;;
12814;SDS011;6472;52.328;13.070;2023-03-26T11:45:50;1.53;;;0.90;;
12814;SDS011;6472;52.328;13.070;2023-03-26T11:48:22;4.00;;;0.60;;
12814;SDS011;6472;52.328;13.070;2023-03-26T11:50:55;0.97;;;0.60;;
12814;SDS011;6472;52.328;13.070;2023-03-26T11:53:27;0.60;;;0.60;;
12814;SDS011;6472;52.328;13.070;2023-03-26T11:56:00;1.87;;;0.70;;
12814;SDS011;6472;52.328;13.070;2023-03-26T11:58:31;2.67;;;0.60;;
12814;SDS011;6472;52.328;13.070;2023-03-26T12:01:14;0.60;;;0.60;;
12814;SDS011;6472;52.328;13.070;2023-03-26T12:03:57;1.37;;;0.90;;
12814;SDS011;6472;52.328;13.070;2023-03-26T12:06:30;0.50;;;0.50;;
12814;SDS011;6472;52.328;13.070;2023-03-26T12:08:59;0.40;;;0.30;;
12814;SDS011;6472;52.328;13.070;2023-03-26T12:11:30;0.50;;;0.50;;
12814;SDS011;6472;52.328;13.070;2023-03-26T12:14:01;2.13;;;0.70;;
12814;SDS011;6472;52.328;13.070;2023-03-26T12:16:31;1.13;;;0.33;;
12814;SDS011;6472;52.328;13.070;2023-03-26T12:19:04;2.87;;;1.07;;
12814;SDS011;6472;52.328;13.070;2023-03-26T12:21:45;0.63;;;0.50;;
12814;SDS011;6472;52.328;13.070;2023-03-26T12:24:26;0.40;;;0.40;;
12814;SDS011;6472;52.328;13.070;2023-03-26T12:26:56;0.50;;;0.50;;
12814;SDS011;6472;52.328;13.070;2023-03-26T12:29:28;2.23;;;0.70;;
12814;SDS011;6472;52.328;13.070;2023-03-26T12:32:04;0.50;;;0.50;;
12814;SDS011;6472;52.328;13.070;2023-03-26T12:34:35;0.70;;;0.60;;
12814;SDS011;6472;52.328;13.070;2023-03-26T12:37:05;2.80;;;0.73;;
12814;SDS011;6472;52.328;13.070;2023-03-26T12:39:36;1.07;;;0.97;;
12814;SDS011;6472;52.328;13.070;2023-03-26T12:42:27;2.43;;;0.73;;
12814;SDS011;6472;52.328;13.070;2023-03-26T12:45:16;0.83;;;0.73;;
12814;SDS011;6472;52.328;13.070;2023-03-26T12:47:48;2.57;;;0.73;;
12814;SDS011;6472;52.328;13.070;2023-03-26T12:50:32;0.50;;;0.50;;
12814;SDS011;6472;52.328;13.070;2023-03-26T12:56:17;1.73;;;0.67;;
12814;SDS011;6472;52.328;13.070;2023-03-26T12:58:54;3.27;;;1.00;;
12814;SDS011;6472;52.328;13.070;2023-03-26T13:01:35;0.93;;;0.50;;
12814;SDS011;6472;52.328;13.070;2023-03-26T13:04:17;2.60;;;0.60;;
12814;SDS011;6472;52.328;13.070;2023-03-26T13:06:57;1.67;;;0.90;;
12814;SDS011;6472;52.328;13.070;2023-03-26T13:09:49;1.23;;;0.60;;
12814;SDS011;6472;52.328;13.070;2023-03-26T13:12:35;0.93;;;0.50;;
12814;SDS011;6472;52.328;13.070;2023-03-26T13:15:10;0.73;;;0.60;;
12814;SDS011;6472;52.328;13.070;2023-03-26T13:17:48;2.73;;;0.50;;
12814;SDS011;6472;52.328;13.070;2023-03-26T13:20:24;0.60;;;0.60;;
12814;SDS011;6472;52.328;13.070;2023-03-26T13:23:00;0.57;;;0.57;;
12814;SDS011;6472;52.328;13.070;2023-03-26T13:25:36;0.67;;;0.50;;
12814;SDS011;6472;52.328;13.070;2023-03-26T13:28:14;1.60;;;1.50;;
12814;SDS011;6472;52.328;13.070;2023-03-26T13:30:57;2.87;;;0.63;;
12814;SDS011;6472;52.328;13.070;2023-03-26T13:33:38;0.63;;;0.63;;
12814;SDS011;6472;52.328;13.070;2023-03-26T13:36:14;1.33;;;0.70;;
12814;SDS011;6472;52.328;13.070;2023-03-26T13:38:56;1.57;;;0.63;;
12814;SDS011;6472;52.328;13.070;2023-03-26T13:41:39;5.10;;;1.20;;
12814;SDS011;6472;52.328;13.070;2023-03-26T13:44:30;1.30;;;1.13;;
12814;SDS011;6472;52.328;13.070;2023-03-26T13:47:05;1.47;;;1.00;;
12814;SDS011;6472;52.328;13.070;2023-03-26T13:49:38;0.93;;;0.90;;
12814;SDS011;6472;52.328;13.070;2023-03-26T13:52:10;1.20;;;0.70;;
12814;SDS011;6472;52.328;13.070;2023-03-26T13:54:44;1.77;;;0.57;;
12814;SDS011;6472;52.328;13.070;2023-03-26T13:57:17;1.20;;;0.80;;
12814;SDS011;6472;52.328;13.070;2023-03-26T13:59:51;2.00;;;0.70;;
12814;SDS011;6472;52.328;13.070;2023-03-26T14:02:23;1.13;;;0.70;;
12814;SDS011;6472;52.328;13.070;2023-03-26T14:04:59;2.53;;;0.70;;
12814;SDS011;6472;52.328;13.070;2023-03-26T14:07:32;1.63;;;0.70;;
12814;SDS011;6472;52.328;13.070;2023-03-26T14:10:07;2.73;;;0.93;;
12814;SDS011;6472;52.328;13.070;2023-03-26T14:12:46;2.90;;;1.10;;
12814;SDS011;6472;52.328;13.070;2023-03-26T14:15:21;0.80;;;0.80;;
12814;SDS011;6472;52.328;13.070;2023-03-26T14:17:54;2.53;;;0.70;;
12814;SDS011;6472;52.328;13.070;2023-03-26T14:23:41;1.13;;;0.90;;
12814;SDS011;6472;52.328;13.070;2023-03-26T14:29:36;6.37;;;1.23;;
12814;SDS011;6472;52.328;13.070;2023-03-26T14:32:31;1.13;;;0.70;;
12814;SDS011;6472;52.328;13.070;2023-03-26T14:41:05;2.57;;;0.73;;
12814;SDS011;6472;52.328;13.070;2023-03-26T14:43:58;1.97;;;0.90;;
12814;SDS011;6472;52.328;13.070;2023-03-26T14:49:44;2.80;;;0.80;;
12814;SDS011;6472;52.328;13.070;2023-03-26T14:52:34;2.83;;;0.97;;
12814;SDS011;6472;52.328;13.070;2023-03-26T14:55:12;2.57;;;1.10;;
12814;SDS011;6472;52.328;13.070;2023-03-26T14:58:01;1.43;;;0.60;;
12814;SDS011;6472;52.328;13.070;2023-03-26T15:01:12;2.40;;;0.90;;
12814;SDS011;6472;52.328;13.070;2023-03-26T15:07:07;3.13;;;1.10;;
12814;SDS011;6472;52.328;13.070;2023-03-26T15:10:13;1.23;;;1.13;;
12814;SDS011;6472;52.328;13.070;2023-03-26T15:13:01;2.07;;;0.90;;
12814;SDS011;6472;52.328;13.070;2023-03-26T15:15:55;0.93;;;0.50;;
12814;SDS011;6472;52.328;13.070;2023-03-26T15:24:57;5.70;;;1.70;;
12814;SDS011;6472;52.328;13.070;2023-03-26T15:27:54;1.97;;;1.70;;
12814;SDS011;6472;52.328;13.070;2023-03-26T15:30:59;5.30;;;2.57;;
12814;SDS011;6472;52.328;13.070;2023-03-26T15:34:04;6.50;;;2.93;;
12814;SDS011;6472;52.328;13.070;2023-03-26T15:40:15;0.87;;;0.80;;
12814;SDS011;6472;52.328;13.070;2023-03-26T15:42:57;3.23;;;1.53;;
12814;SDS011;6472;52.328;13.070;2023-03-26T15:45:31;1.10;;;0.50;;
12814;SDS011;6472;52.328;13.070;2023-03-26T15:48:23;1.27;;;1.17;;
12814;SDS011;6472;52.328;13.070;2023-03-26T15:51:04;0.60;;;0.60;;
12814;SDS011;6472;52.328;13.070;2023-03-26T15:54:15;5.83;;;1.27;;
12814;SDS011;6472;52.328;13.070;2023-03-26T15:56:54;1.53;;;0.73;;
12814;SDS011;6472;52.328;13.070;2023-03-26T15:59:36;2.80;;;1.07;;
12814;SDS011;6472;52.328;13.070;2023-03-26T16:02:13;3.00;;;0.90;;
12814;SDS011;6472;52.328;13.070;2023-03-26T16:04:50;0.97;;;0.67;;
12814;SDS011;6472;52.328;13.070;2023-03-26T16:07:35;0.87;;;0.80;;
12814;SDS011;6472;52.328;13.070;2023-03-26T16:10:28;1.43;;;0.87;;
12814;SDS011;6472;52.328;13.070;2023-03-26T16:13:25;2.73;;;0.97;;
12814;SDS011;6472;52.328;13.070;2023-03-26T16:16:14;2.50;;;0.90;;
12814;SDS011;6472;52.328;13.070;2023-03-26T16:18:46;1.30;;;0.70;;
12814;SDS011;6472;52.328;13.070;2023-03-26T16:24:24;1.50;;;0.97;;
12814;SDS011;6472;52.328;13.070;2023-03-26T16:30:05;2.83;;;0.80;;
12814;SDS011;6472;52.328;13.070;2023-03-26T16:33:03;1.80;;;1.13;;
12814;SDS011;6472;52.328;13.070;2023-03-26T16:38:45;2.50;;;1.07;;
12814;SDS011;6472;52.328;13.070;2023-03-26T16:41:18;1.90;;;1.47;;
12814;SDS011;6472;52.328;13.070;2023-03-26T16:44:01;0.83;;;0.67;;
12814;SDS011;6472;52.328;13.070;2023-03-26T16:46:42;2.97;;;1.03;;
12814;SDS011;6472;52.328;13.070;2023-03-26T16:49:23;1.83;;;1.20;;
12814;SDS011;6472;52.328;13.070;2023-03-26T16:52:09;2.30;;;0.80;;
12814;SDS011;6472;52.328;13.070;2023-03-26T16:54:49;4.23;;;0.97;;